Archival Weather

Bob Hope

Burbank, California (KBUR)

Report from: Monday, January 29, 2024 2:53 PM PST
Current time: Friday, June 14, 2024 5:09 AM PDT

Current weather – Weather history – Daily summaries
Weather forecast

Temperature25.6°C (78.1°F)
Dew point1.1°C (34.0°F)
Winds 6 kts (3.1 m/s, 6.9 mph) South-Southeast (160°)
Visibility10 mi. (16.1 km)
Clouds Sky clear
Altimeter30.04 in.Hg (1017 mB)
Relative humidity20 %
Density altitude1,231 ft. (375 m)
Sea-level pressure101.6 kPa (1016 mB, 30.01 in.Hg)
Remarks Automated weather observing station with precipitation discriminator
Flight conditions Visual Meteorological Conditions
Raw dataKBUR 292253Z 16006KT 10SM CLR 26/01 A3004 RMK AO2 SLP162 T02560011
An error has occurred. This application may no longer respond until reloaded. Reload 🗙